Time;durP1;ratioP1;P1;durP2;ratioP2;P2;SDS_P1;SDS_P2;PMS_P1;PMS_P2;Temp;Humidity;BMP_temperature;BMP_pressure;BME280_temperature;BME280_humidity;BME280_pressure;Samples;Min_cycle;Max_cycle;Signal;HPM_P1;HPM_P2
2024/02/21 00:01:57;;;;;;;18.13;10.63;;;11.20;99.90;;;;;;4986982;28;20455;-71
2024/02/21 00:04:23;;;;;;;18.40;9.97;;;11.20;99.90;;;;;;5021058;28;20939;-71
2024/02/21 00:06:49;;;;;;;20.07;9.70;;;11.20;99.90;;;;;;4986951;28;20567;-71
2024/02/21 00:09:15;;;;;;;23.47;10.50;;;11.20;99.90;;;;;;5002596;28;20798;-71
2024/02/21 00:11:43;;;;;;;26.20;10.37;;;11.20;99.90;;;;;;4980346;28;20441;-71
2024/02/21 00:14:11;;;;;;;18.90;9.50;;;11.20;99.90;;;;;;5001382;28;20452;-71
2024/02/21 00:16:40;;;;;;;17.73;9.63;;;11.20;99.90;;;;;;4983364;28;20967;-71
2024/02/21 00:19:06;;;;;;;16.00;9.53;;;11.20;99.90;;;;;;4985916;28;20476;-71
2024/02/21 00:21:34;;;;;;;19.40;11.20;;;11.20;99.90;;;;;;5003696;28;20412;-71
2024/02/21 00:24:00;;;;;;;17.07;9.33;;;11.20;99.90;;;;;;5003810;28;20420;-71
2024/02/21 00:26:26;;;;;;;17.83;10.17;;;11.20;99.90;;;;;;5021588;28;20439;-71
2024/02/21 00:28:53;;;;;;;18.93;10.40;;;11.20;99.90;;;;;;5002900;28;20436;-71
2024/02/21 00:31:19;;;;;;;17.20;10.67;;;11.20;99.90;;;;;;5020312;28;20470;-71
2024/02/21 00:33:50;;;;;;;22.10;9.90;;;11.20;99.90;;;;;;5020326;28;20432;-70
2024/02/21 00:36:16;;;;;;;19.33;10.73;;;11.20;99.90;;;;;;5002409;28;20519;-71
2024/02/21 00:38:42;;;;;;;22.80;10.00;;;11.20;99.90;;;;;;5021779;28;20993;-71
2024/02/21 00:41:08;;;;;;;15.80;10.40;;;11.20;99.90;;;;;;5004832;28;20849;-71
2024/02/21 00:43:36;;;;;;;18.73;9.43;;;11.20;99.90;;;;;;4972411;28;20427;-71
2024/02/21 00:46:06;;;;;;;19.80;9.30;;;11.20;99.90;;;;;;4988140;28;20942;-71
2024/02/21 00:48:32;;;;;;;16.00;9.50;;;11.20;99.90;;;;;;5004229;28;20810;-71
2024/02/21 00:51:00;;;;;;;20.23;10.47;;;11.20;99.90;;;;;;4987402;28;20428;-71
2024/02/21 00:53:28;;;;;;;17.43;9.60;;;11.20;99.90;;;;;;5003916;28;20754;-71
2024/02/21 00:55:59;;;;;;;18.63;8.57;;;11.20;99.90;;;;;;5003634;28;20431;-71
2024/02/21 00:58:27;;;;;;;18.80;10.27;;;11.20;99.90;;;;;;5002808;28;20463;-71
2024/02/21 01:00:56;;;;;;;19.53;9.43;;;11.20;99.90;;;;;;5002210;28;20412;-71
2024/02/21 01:03:24;;;;;;;14.03;8.97;;;11.20;99.90;;;;;;4998204;28;20490;-71
2024/02/21 01:05:55;;;;;;;17.27;8.30;;;11.20;99.90;;;;;;5036330;28;20538;-71
2024/02/21 01:08:21;;;;;;;18.23;9.10;;;11.20;99.90;;;;;;4985428;28;21036;-70
2024/02/21 01:10:49;;;;;;;13.40;8.83;;;11.20;99.90;;;;;;5002096;28;21107;-70
2024/02/21 01:13:17;;;;;;;15.80;9.13;;;11.20;99.90;;;;;;5001966;28;20531;-70
2024/02/21 01:15:46;;;;;;;13.23;8.80;;;11.20;99.90;;;;;;5001450;28;20514;-71
2024/02/21 01:18:12;;;;;;;17.20;9.43;;;11.20;99.90;;;;;;5001706;28;20487;-70
2024/02/21 01:20:40;;;;;;;20.97;8.77;;;11.30;99.90;;;;;;4986146;28;20490;-71
2024/02/21 01:23:09;;;;;;;22.47;8.87;;;11.20;99.90;;;;;;4986368;28;20428;-71
2024/02/21 01:25:35;;;;;;;22.27;10.73;;;11.10;99.90;;;;;;5002391;28;20462;-71
2024/02/21 01:28:01;;;;;;;17.03;9.53;;;11.20;99.90;;;;;;5002083;28;21097;-70
2024/02/21 01:30:29;;;;;;;17.60;8.87;;;11.20;99.90;;;;;;5001726;28;20439;-71
2024/02/21 01:33:02;;;;;;;15.83;8.50;;;11.20;99.90;;;;;;4986049;28;20427;-71
2024/02/21 01:35:28;;;;;;;13.97;9.53;;;11.20;99.90;;;;;;5000755;28;20419;-71
2024/02/21 01:37:57;;;;;;;18.57;9.07;;;11.20;99.90;;;;;;5001640;28;21192;-71
2024/02/21 01:40:23;;;;;;;11.57;7.93;;;11.20;99.90;;;;;;4985280;28;20795;-71
2024/02/21 01:42:53;;;;;;;13.30;7.70;;;11.20;99.90;;;;;;5001771;28;20526;-70
2024/02/21 01:45:19;;;;;;;17.60;8.70;;;11.20;99.90;;;;;;4985768;28;20504;-72
2024/02/21 01:47:49;;;;;;;15.67;8.63;;;11.20;99.90;;;;;;4969464;28;20447;-71
2024/02/21 01:50:20;;;;;;;21.17;8.10;;;11.20;99.90;;;;;;4969620;28;20571;-72
2024/02/21 01:52:50;;;;;;;14.53;8.50;;;11.20;99.90;;;;;;5002021;28;20442;-71
2024/02/21 01:55:16;;;;;;;15.10;8.50;;;11.20;99.90;;;;;;4985600;28;20436;-71
2024/02/21 01:57:47;;;;;;;14.77;8.00;;;11.20;99.90;;;;;;4976744;28;20468;-71
2024/02/21 02:00:17;;;;;;;12.40;7.70;;;11.20;99.90;;;;;;4969427;28;20438;-71
2024/02/21 02:02:45;;;;;;;15.30;9.50;;;11.20;99.90;;;;;;5001336;28;20657;-71
2024/02/21 02:05:12;;;;;;;16.70;8.87;;;11.20;99.90;;;;;;5001793;28;20458;-71
2024/02/21 02:07:38;;;;;;;13.40;8.47;;;11.20;99.90;;;;;;5001639;28;21064;-71
2024/02/21 02:10:07;;;;;;;16.27;8.80;;;11.20;99.90;;;;;;4985074;28;20451;-71
2024/02/21 02:12:33;;;;;;;19.70;8.53;;;11.20;99.90;;;;;;5020062;28;20427;-71
2024/02/21 02:15:06;;;;;;;14.13;8.23;;;11.20;99.90;;;;;;5001494;28;20427;-71
2024/02/21 02:17:35;;;;;;;16.20;7.73;;;11.20;99.90;;;;;;5001718;28;20456;-71
2024/02/21 02:20:01;;;;;;;16.30;8.07;;;11.20;99.90;;;;;;4985921;28;20489;-71
2024/02/21 02:22:32;;;;;;;15.83;9.13;;;11.20;99.90;;;;;;5001908;28;20513;-70
2024/02/21 02:24:58;;;;;;;15.23;8.57;;;11.20;99.90;;;;;;4985385;28;21091;-70
2024/02/21 02:27:27;;;;;;;17.73;8.73;;;11.20;99.90;;;;;;5019763;28;20450;-71
2024/02/21 02:29:56;;;;;;;21.67;8.33;;;11.30;99.90;;;;;;4985441;28;20483;-72
2024/02/21 02:32:26;;;;;;;19.83;9.90;;;11.20;99.90;;;;;;4985908;28;20502;-71
2024/02/21 02:34:52;;;;;;;13.53;7.93;;;11.20;99.90;;;;;;4985677;28;20966;-71
2024/02/21 02:37:21;;;;;;;9.90;7.77;;;11.20;99.90;;;;;;5001382;28;20482;-71
2024/02/21 02:39:49;;;;;;;19.23;9.57;;;11.20;99.90;;;;;;5001532;28;20507;-71
2024/02/21 02:42:15;;;;;;;15.50;8.00;;;11.20;99.90;;;;;;5001165;28;20468;-71
2024/02/21 02:44:43;;;;;;;11.77;7.57;;;11.20;99.90;;;;;;4984799;28;20458;-71
2024/02/21 02:47:09;;;;;;;12.73;7.73;;;11.20;99.90;;;;;;4985066;28;20408;-71
2024/02/21 02:49:37;;;;;;;12.83;8.73;;;11.20;99.90;;;;;;5021907;28;20446;-71
2024/02/21 02:52:04;;;;;;;16.23;8.30;;;11.20;99.90;;;;;;5001589;28;20431;-71
2024/02/21 02:54:30;;;;;;;15.47;9.10;;;11.20;99.90;;;;;;5019639;28;20443;-71
2024/02/21 02:57:03;;;;;;;16.33;7.90;;;11.20;99.90;;;;;;5002174;28;20494;-71
2024/02/21 02:59:29;;;;;;;15.63;8.43;;;11.20;99.90;;;;;;4985307;28;20471;-71
2024/02/21 03:01:57;;;;;;;12.97;7.87;;;11.20;99.90;;;;;;5002195;28;20910;-71
2024/02/21 03:04:55;;;;;;;12.53;7.67;;;11.20;99.90;;;;;;5003621;28;20454;-71
2024/02/21 03:07:25;;;;;;;12.60;8.80;;;11.20;99.90;;;;;;5020196;28;20463;-71
2024/02/21 03:09:52;;;;;;;11.73;7.73;;;11.20;99.90;;;;;;5000512;28;20430;-71
2024/02/21 03:12:27;;;;;;;13.40;7.50;;;11.20;99.90;;;;;;4999026;28;20424;-72
2024/02/21 03:14:54;;;;;;;15.83;8.53;;;11.20;99.90;;;;;;4995571;28;20427;-72
2024/02/21 03:17:20;;;;;;;15.20;7.97;;;11.20;99.90;;;;;;4983105;28;20455;-72
2024/02/21 03:19:46;;;;;;;13.23;7.67;;;11.20;99.90;;;;;;4986123;28;20491;-72
2024/02/21 03:22:12;;;;;;;12.93;7.70;;;11.20;99.90;;;;;;5016402;28;21024;-72
2024/02/21 03:24:40;;;;;;;15.70;8.10;;;11.20;99.90;;;;;;5019629;28;20408;-72
2024/02/21 03:27:07;;;;;;;12.60;7.83;;;11.20;99.90;;;;;;5017318;28;20432;-72
2024/02/21 03:29:35;;;;;;;14.23;7.90;;;11.20;99.90;;;;;;5001975;28;20942;-72
2024/02/21 03:32:01;;;;;;;13.40;7.83;;;11.20;99.90;;;;;;4985303;28;20423;-72
2024/02/21 03:37:17;;;;;;;13.17;8.30;;;11.20;99.90;;;;;;5020675;28;20550;-25
2024/02/21 03:39:43;;;;;;;14.63;7.60;;;11.20;99.90;;;;;;5001555;28;20467;-25
2024/02/21 03:42:10;;;;;;;19.37;7.90;;;11.20;99.90;;;;;;5021630;28;20485;-26
2024/02/21 03:44:36;;;;;;;16.23;7.00;;;11.20;99.90;;;;;;4988450;28;20455;-25
2024/02/21 03:47:03;;;;;;;11.70;8.10;;;11.20;99.90;;;;;;4969253;28;21252;-25
2024/02/21 03:49:28;;;;;;;10.93;7.33;;;11.20;99.90;;;;;;4985461;28;20598;-25
2024/02/21 03:51:55;;;;;;;10.77;7.50;;;11.10;99.90;;;;;;5003996;28;20975;-25
2024/02/21 03:54:23;;;;;;;14.10;8.10;;;11.20;99.90;;;;;;5002459;28;20490;-25
2024/02/21 03:56:49;;;;;;;16.60;8.13;;;11.20;99.90;;;;;;4985516;28;20894;-25
2024/02/21 03:59:16;;;;;;;16.80;7.73;;;11.20;99.90;;;;;;4983542;28;20548;-24
2024/02/21 04:01:42;;;;;;;11.43;8.00;;;11.10;99.90;;;;;;4982458;28;20433;-25
2024/02/21 04:04:08;;;;;;;19.67;8.80;;;11.20;99.90;;;;;;5031704;22;20555;-27
2024/02/21 04:06:36;;;;;;;14.40;8.43;;;11.10;99.90;;;;;;5037573;28;20504;-26
2024/02/21 04:09:02;;;;;;;12.40;8.43;;;11.20;99.90;;;;;;5018972;28;20438;-26
2024/02/21 04:11:30;;;;;;;13.40;8.03;;;11.20;99.90;;;;;;5013560;28;20431;-27
2024/02/21 04:13:57;;;;;;;14.80;7.10;;;11.20;99.90;;;;;;5019138;28;20443;-27
2024/02/21 04:16:24;;;;;;;14.57;8.37;;;11.20;99.90;;;;;;5014177;28;20420;-27
2024/02/21 04:18:50;;;;;;;16.30;8.33;;;11.20;99.90;;;;;;5037172;28;20478;-26
2024/02/21 04:21:20;;;;;;;13.70;7.83;;;11.20;99.90;;;;;;5039130;28;20530;-27
2024/02/21 04:23:46;;;;;;;18.07;8.60;;;11.10;99.90;;;;;;4998406;28;20554;-27
2024/02/21 04:26:13;;;;;;;11.93;7.23;;;11.20;99.90;;;;;;5037647;28;20535;-28
2024/02/21 04:28:41;;;;;;;14.23;7.20;;;11.10;99.90;;;;;;5039376;28;20431;-25
2024/02/21 04:31:07;;;;;;;12.27;7.57;;;11.20;99.90;;;;;;5019579;28;20536;-24
2024/02/21 04:33:33;;;;;;;16.80;8.70;;;11.20;99.90;;;;;;5015515;28;20457;-26
2024/02/21 04:36:00;;;;;;;10.90;7.70;;;11.20;99.90;;;;;;5033971;28;20428;-25
2024/02/21 04:38:29;;;;;;;12.70;7.50;;;11.20;99.90;;;;;;5039177;28;20466;-27
2024/02/21 04:40:58;;;;;;;12.50;8.23;;;11.20;99.90;;;;;;5023979;28;20470;-27
2024/02/21 04:43:26;;;;;;;12.83;7.00;;;11.10;99.90;;;;;;5000349;28;20450;-27
2024/02/21 04:45:53;;;;;;;10.20;7.20;;;11.30;99.90;;;;;;5017405;28;20467;-27
2024/02/21 04:48:19;;;;;;;10.20;6.80;;;11.20;99.90;;;;;;5008481;28;20825;-25
2024/02/21 04:50:46;;;;;;;12.73;7.17;;;11.10;99.90;;;;;;5044151;28;20468;-28
2024/02/21 04:53:14;;;;;;;12.17;7.10;;;11.10;99.90;;;;;;5006455;28;20443;-27
2024/02/21 04:55:40;;;;;;;12.77;6.77;;;11.20;99.90;;;;;;5019895;28;20993;-26
2024/02/21 04:58:06;;;;;;;11.57;7.10;;;11.20;99.90;;;;;;5040063;28;20432;-24
2024/02/21 05:00:35;;;;;;;11.50;6.40;;;11.20;99.90;;;;;;5038369;28;20427;-27
2024/02/21 05:03:01;;;;;;;13.37;7.47;;;11.10;99.90;;;;;;5041572;28;20968;-27
2024/02/21 05:05:27;;;;;;;11.20;6.57;;;11.10;99.90;;;;;;5040269;28;20419;-26
2024/02/21 05:07:53;;;;;;;16.63;6.93;;;11.20;99.90;;;;;;5018630;28;20490;-27
2024/02/21 05:10:22;;;;;;;10.00;6.07;;;11.10;99.90;;;;;;4999482;28;21053;-28
2024/02/21 05:12:48;;;;;;;8.83;6.13;;;11.10;99.90;;;;;;5017209;28;20420;-27
2024/02/21 05:15:14;;;;;;;7.83;6.10;;;11.10;99.90;;;;;;5033573;28;20435;-27
2024/02/21 05:17:40;;;;;;;12.33;6.50;;;11.10;99.90;;;;;;5021730;28;20419;-27
2024/02/21 05:20:09;;;;;;;12.63;6.50;;;11.10;99.90;;;;;;5039341;28;21103;-26
2024/02/21 05:22:35;;;;;;;7.67;5.83;;;11.20;99.90;;;;;;5025104;28;20470;-26
2024/02/21 05:25:01;;;;;;;8.00;6.37;;;11.10;99.90;;;;;;5025004;28;20426;-26
2024/02/21 05:27:27;;;;;;;15.07;7.50;;;11.20;99.90;;;;;;5039316;28;20901;-25
2024/02/21 05:29:54;;;;;;;8.90;6.70;;;11.10;99.90;;;;;;5037343;28;20439;-27
2024/02/21 05:32:20;;;;;;;8.83;6.40;;;11.30;99.90;;;;;;5025384;28;20423;-27
2024/02/21 05:34:49;;;;;;;12.50;6.70;;;11.10;99.90;;;;;;5042614;28;20538;-27
2024/02/21 05:37:17;;;;;;;13.60;6.60;;;11.10;99.90;;;;;;5018948;28;20479;-26
2024/02/21 05:39:48;;;;;;;11.57;6.73;;;11.10;99.90;;;;;;5014916;28;20459;-26
2024/02/21 05:42:17;;;;;;;11.17;6.10;;;11.10;99.90;;;;;;5015668;28;20432;-27
2024/02/21 05:44:43;;;;;;;11.10;6.37;;;11.10;99.90;;;;;;5035927;28;20523;-27
2024/02/21 05:47:15;;;;;;;12.20;6.90;;;11.10;99.90;;;;;;5034176;28;20423;-27
2024/02/21 05:49:41;;;;;;;11.40;6.00;;;11.10;99.90;;;;;;5019508;28;20436;-27
2024/02/21 05:52:09;;;;;;;12.80;6.47;;;11.10;99.90;;;;;;5040319;28;20460;-27
2024/02/21 05:54:39;;;;;;;9.53;6.53;;;11.10;99.90;;;;;;5038892;28;20959;-25
2024/02/21 05:57:05;;;;;;;9.80;6.53;;;11.10;99.90;;;;;;5004322;28;20445;-25
2024/02/21 05:59:31;;;;;;;11.67;6.57;;;11.30;99.90;;;;;;5040386;28;20466;-27
2024/02/21 06:02:03;;;;;;;11.20;6.50;;;11.10;99.90;;;;;;5019359;28;20453;-25
2024/02/21 06:04:29;;;;;;;8.97;6.37;;;11.10;99.90;;;;;;5023269;28;20986;-26
2024/02/21 06:06:55;;;;;;;12.17;5.63;;;11.10;99.90;;;;;;5038552;28;20445;-27
2024/02/21 06:09:49;;;;;;;9.30;6.23;;;11.10;99.90;;;;;;5041842;28;20416;-27
2024/02/21 06:12:15;;;;;;;12.00;6.30;;;11.10;99.90;;;;;;5037875;28;21070;-27
2024/02/21 06:14:43;;;;;;;11.33;6.53;;;11.10;99.90;;;;;;5020448;28;20446;-26
2024/02/21 06:17:12;;;;;;;9.30;5.70;;;11.10;99.90;;;;;;5034884;28;20568;-25
2024/02/21 06:19:41;;;;;;;9.33;6.13;;;11.10;99.90;;;;;;5019979;28;20558;-26
2024/02/21 06:22:07;;;;;;;12.07;5.40;;;11.20;99.90;;;;;;5035268;28;20504;-26
2024/02/21 06:24:36;;;;;;;7.23;5.77;;;11.10;99.90;;;;;;5017325;28;20518;-27
2024/02/21 06:27:06;;;;;;;13.73;6.07;;;11.10;99.90;;;;;;5039359;28;20481;-26
2024/02/21 06:29:33;;;;;;;11.20;5.50;;;11.10;99.90;;;;;;5005354;28;20435;-27
2024/02/21 06:32:01;;;;;;;10.70;6.63;;;11.10;99.90;;;;;;5025994;28;20434;-27
2024/02/21 06:34:27;;;;;;;10.20;6.37;;;11.10;99.90;;;;;;5021267;28;20477;-25
2024/02/21 06:36:54;;;;;;;13.30;6.93;;;11.10;99.90;;;;;;5019240;28;20434;-26
2024/02/21 06:39:23;;;;;;;9.03;5.93;;;11.10;99.90;;;;;;5020111;28;20471;-27
2024/02/21 06:41:53;;;;;;;10.70;5.90;;;11.10;99.90;;;;;;5006487;28;20428;-27
2024/02/21 06:44:23;;;;;;;11.00;5.90;;;11.10;99.90;;;;;;5033942;28;20442;-27
2024/02/21 06:46:51;;;;;;;10.00;5.80;;;11.10;99.90;;;;;;5036590;28;20889;-27
2024/02/21 06:49:17;;;;;;;11.07;6.27;;;11.10;99.90;;;;;;5014454;28;20429;-26
2024/02/21 06:51:46;;;;;;;10.33;5.80;;;11.10;99.90;;;;;;5001144;28;21052;-26
2024/02/21 06:54:12;;;;;;;9.23;5.40;;;11.10;99.90;;;;;;5038080;28;20462;-27
2024/02/21 06:56:40;;;;;;;8.43;6.03;;;11.10;99.90;;;;;;5035908;28;20430;-27
2024/02/21 06:59:09;;;;;;;11.33;5.37;;;11.10;99.90;;;;;;5027133;28;20461;-27
2024/02/21 07:01:37;;;;;;;6.63;5.37;;;11.10;99.90;;;;;;5038033;28;20786;-27
2024/02/21 07:04:05;;;;;;;7.33;5.33;;;11.10;99.90;;;;;;5022794;28;20843;-27
2024/02/21 07:06:32;;;;;;;12.00;7.00;;;11.10;99.90;;;;;;5028188;28;20893;-27
2024/02/21 07:08:58;;;;;;;15.63;7.20;;;11.10;99.90;;;;;;5016826;28;20430;-27
2024/02/21 07:11:24;;;;;;;12.93;6.10;;;11.10;99.90;;;;;;5043005;28;20500;-27
2024/02/21 07:13:52;;;;;;;7.73;5.67;;;11.10;99.90;;;;;;5044503;28;20450;-23
2024/02/21 07:16:20;;;;;;;11.03;7.20;;;11.10;99.90;;;;;;5046345;28;20484;-27
2024/02/21 07:18:48;;;;;;;8.43;6.00;;;11.10;99.90;;;;;;5042293;28;21022;-25
2024/02/21 07:21:15;;;;;;;9.20;5.40;;;11.10;99.90;;;;;;5003462;28;20839;-25
2024/02/21 07:23:42;;;;;;;9.37;5.60;;;11.10;99.90;;;;;;5041414;28;20517;-26
2024/02/21 07:26:11;;;;;;;9.10;5.77;;;11.10;99.90;;;;;;5022293;28;20419;-24
2024/02/21 07:28:38;;;;;;;8.60;5.63;;;11.10;99.90;;;;;;5035961;28;20469;-27
2024/02/21 07:31:04;;;;;;;11.80;5.77;;;11.30;99.90;;;;;;5036018;28;20961;-26
2024/02/21 07:33:32;;;;;;;13.17;6.10;;;11.10;99.90;;;;;;5025606;28;20454;-27
2024/02/21 07:35:59;;;;;;;10.37;6.70;;;11.10;99.90;;;;;;5042168;28;20482;-24
2024/02/21 07:38:27;;;;;;;10.67;5.63;;;11.10;99.90;;;;;;5015500;28;20548;-25
2024/02/21 07:40:56;;;;;;;8.80;5.93;;;11.10;99.90;;;;;;5014288;28;20448;-26
2024/02/21 07:43:22;;;;;;;11.97;6.27;;;11.10;99.90;;;;;;5018036;28;20500;-25
2024/02/21 07:45:50;;;;;;;9.37;5.30;;;11.10;99.90;;;;;;5040759;28;20434;-26
2024/02/21 07:48:17;;;;;;;10.77;5.70;;;11.10;99.90;;;;;;5038264;28;20964;-24
2024/02/21 07:50:43;;;;;;;8.40;5.47;;;11.10;99.90;;;;;;5039040;28;21004;-24
2024/02/21 07:53:09;;;;;;;9.73;4.80;;;11.10;99.90;;;;;;5016070;28;20504;-24
2024/02/21 07:55:38;;;;;;;8.40;5.73;;;11.10;99.90;;;;;;5042859;28;20425;-25
2024/02/21 07:58:04;;;;;;;9.33;5.00;;;11.10;99.90;;;;;;5038443;28;20434;-26
2024/02/21 08:00:30;;;;;;;9.27;5.40;;;11.10;99.90;;;;;;5025334;28;20434;-26
2024/02/21 08:02:56;;;;;;;8.23;5.13;;;11.10;99.90;;;;;;5030888;28;20905;-25
2024/02/21 08:05:23;;;;;;;9.70;4.87;;;11.20;99.90;;;;;;5042671;28;20972;-25
2024/02/21 08:07:49;;;;;;;8.80;5.60;;;11.10;99.90;;;;;;5027355;28;20440;-25
2024/02/21 08:10:17;;;;;;;9.60;5.13;;;11.10;99.90;;;;;;5035803;28;20435;-25
2024/02/21 08:12:45;;;;;;;8.07;5.33;;;11.10;99.90;;;;;;5033366;28;20922;-26
2024/02/21 08:15:12;;;;;;;10.37;6.53;;;11.10;99.90;;;;;;5038459;28;20440;-24
2024/02/21 08:17:38;;;;;;;7.67;5.10;;;11.10;99.90;;;;;;5032136;28;20458;-26
2024/02/21 08:20:05;;;;;;;9.40;6.50;;;11.10;99.90;;;;;;5030985;28;20464;-26
2024/02/21 08:22:31;;;;;;;7.87;5.63;;;11.10;99.90;;;;;;5013189;28;20733;-26
2024/02/21 08:24:57;;;;;;;11.67;5.33;;;11.00;99.90;;;;;;5021073;28;20469;-26
2024/02/21 08:27:23;;;;;;;12.60;6.10;;;11.10;99.90;;;;;;5030949;28;20576;-26
2024/02/21 08:29:49;;;;;;;9.47;5.67;;;11.10;99.90;;;;;;5014175;28;20424;-25
2024/02/21 08:32:16;;;;;;;9.30;4.80;;;11.10;99.90;;;;;;5016408;28;20456;-27
2024/02/21 08:34:44;;;;;;;10.70;5.57;;;11.10;99.90;;;;;;5036300;28;20450;-27
2024/02/21 08:37:10;;;;;;;7.63;6.37;;;11.10;99.90;;;;;;5039895;28;20766;-25
2024/02/21 08:39:36;;;;;;;10.73;4.80;;;11.10;99.90;;;;;;5037805;28;20569;-24
2024/02/21 08:42:02;;;;;;;11.77;5.93;;;11.10;99.90;;;;;;5019667;28;20442;-24
2024/02/21 08:44:28;;;;;;;7.77;4.80;;;11.10;99.90;;;;;;5036972;28;20463;-25
2024/02/21 08:46:55;;;;;;;9.30;4.90;;;11.10;99.90;;;;;;5018577;28;20433;-25
2024/02/21 08:49:23;;;;;;;6.97;4.53;;;11.10;99.90;;;;;;5037354;28;20875;-27
2024/02/21 08:51:49;;;;;;;12.07;5.93;;;11.10;99.90;;;;;;5016041;28;20458;-25
2024/02/21 08:54:16;;;;;;;11.97;5.27;;;11.10;99.90;;;;;;5037593;28;20486;-24
2024/02/21 08:56:43;;;;;;;10.53;5.17;;;11.10;99.90;;;;;;5042667;28;20521;-25
2024/02/21 08:59:09;;;;;;;11.97;6.10;;;11.00;99.90;;;;;;5042113;28;20558;-23
2024/02/21 09:01:38;;;;;;;9.50;5.23;;;11.10;99.90;;;;;;5024880;28;20980;-24
2024/02/21 09:04:05;;;;;;;10.87;5.07;;;11.10;99.90;;;;;;5041853;28;20474;-26
2024/02/21 09:06:33;;;;;;;7.70;4.60;;;11.00;99.90;;;;;;5028650;28;21028;-26
2024/02/21 09:08:59;;;;;;;8.23;5.40;;;11.00;99.90;;;;;;5034728;28;20986;-24
2024/02/21 09:11:27;;;;;;;6.60;4.50;;;11.00;99.90;;;;;;5006706;28;20808;-25
2024/02/21 09:13:55;;;;;;;8.80;4.23;;;11.10;99.90;;;;;;5023844;28;20458;-25
2024/02/21 09:16:22;;;;;;;11.77;5.13;;;11.00;99.90;;;;;;5006514;28;20459;-24
2024/02/21 09:18:52;;;;;;;7.60;5.07;;;11.00;99.90;;;;;;5006868;28;20557;-25
2024/02/21 09:21:18;;;;;;;8.47;5.20;;;11.00;99.90;;;;;;5037990;28;20432;-25
2024/02/21 09:23:45;;;;;;;9.90;5.17;;;11.10;99.90;;;;;;5006372;28;20446;-27
2024/02/21 09:26:16;;;;;;;6.50;4.50;;;11.00;99.90;;;;;;5040681;28;20443;-22
2024/02/21 09:28:45;;;;;;;12.07;5.57;;;11.10;99.90;;;;;;5007106;28;20435;-24
2024/02/21 09:31:11;;;;;;;9.97;4.80;;;11.10;99.90;;;;;;5040578;28;20848;-24
2024/02/21 09:33:39;;;;;;;10.50;4.67;;;11.10;99.90;;;;;;5040641;28;20547;-24
2024/02/21 09:36:08;;;;;;;10.13;4.63;;;11.10;99.90;;;;;;5022199;28;20422;-25
2024/02/21 09:38:34;;;;;;;9.83;4.80;;;11.10;99.90;;;;;;5040827;28;20466;-25
2024/02/21 09:41:19;;;;;;;5.67;4.60;;;11.10;99.90;;;;;;5040677;28;20493;-25
2024/02/21 09:43:45;;;;;;;8.27;5.17;;;10.80;99.90;;;;;;5022110;28;20496;-24
2024/02/21 09:46:19;;;;;;;6.20;4.13;;;11.00;99.90;;;;;;5040209;28;20442;-24
2024/02/21 09:48:57;;;;;;;4.10;3.70;;;11.10;99.90;;;;;;5022429;28;20411;-24
2024/02/21 09:51:32;;;;;;;5.90;3.90;;;11.10;99.90;;;;;;5032209;28;20538;-23
2024/02/21 09:53:59;;;;;;;10.83;4.93;;;11.10;99.90;;;;;;5022589;28;21193;-22
2024/02/21 09:56:25;;;;;;;8.50;5.00;;;11.10;99.90;;;;;;5042468;28;20446;-24
2024/02/21 09:58:51;;;;;;;8.20;4.63;;;11.10;99.90;;;;;;5009214;28;20501;-23
2024/02/21 10:01:17;;;;;;;8.70;4.83;;;11.10;99.90;;;;;;5039725;28;20466;-24
2024/02/21 10:03:44;;;;;;;6.10;4.87;;;11.10;99.90;;;;;;5038670;28;20482;-24
2024/02/21 10:06:13;;;;;;;7.20;4.80;;;11.10;99.90;;;;;;5038198;28;20470;-21
2024/02/21 10:08:39;;;;;;;8.13;4.07;;;11.10;99.90;;;;;;5019823;28;20434;-22
2024/02/21 10:11:05;;;;;;;8.77;4.70;;;11.10;99.90;;;;;;5020590;28;20414;-24
2024/02/21 10:13:31;;;;;;;5.83;3.83;;;11.20;99.90;;;;;;5022256;28;20626;-24
2024/02/21 10:16:08;;;;;;;4.63;3.90;;;11.20;99.90;;;;;;5043031;28;20954;-25
2024/02/21 10:18:35;;;;;;;6.60;4.63;;;11.20;99.90;;;;;;5039677;28;20904;-23
2024/02/21 10:21:06;;;;;;;7.00;4.97;;;11.20;99.90;;;;;;5038879;28;20437;-22
2024/02/21 10:23:49;;;;;;;8.10;4.30;;;11.20;99.90;;;;;;5038891;28;20451;-23
2024/02/21 10:26:19;;;;;;;7.17;4.30;;;11.20;99.90;;;;;;5022166;28;20442;-24
2024/02/21 10:28:47;;;;;;;7.33;4.10;;;11.20;99.90;;;;;;5019990;28;20828;-25
2024/02/21 10:31:28;;;;;;;7.07;4.07;;;11.10;99.90;;;;;;5036922;28;21049;-22
2024/02/21 10:34:05;;;;;;;7.33;3.97;;;11.20;99.90;;;;;;5022240;28;20477;-23
2024/02/21 10:36:31;;;;;;;9.77;4.73;;;11.20;99.90;;;;;;5020508;28;20426;-22
2024/02/21 10:38:57;;;;;;;5.67;3.97;;;11.20;99.90;;;;;;5023597;28;20462;-23
2024/02/21 10:41:24;;;;;;;5.57;4.17;;;11.20;99.90;;;;;;5023821;28;20427;-24
2024/02/21 10:43:55;;;;;;;5.87;3.97;;;11.20;99.90;;;;;;5003721;28;20979;-24
2024/02/21 10:46:22;;;;;;;8.87;4.30;;;11.20;99.90;;;;;;5038243;28;20430;-22
2024/02/21 10:49:10;;;;;;;7.13;4.17;;;11.20;99.90;;;;;;5009380;28;20734;-24
2024/02/21 10:51:41;;;;;;;7.23;4.60;;;11.20;99.90;;;;;;5020159;28;20458;-24
2024/02/21 10:54:09;;;;;;;6.67;4.13;;;11.20;99.90;;;;;;5027606;28;20577;-23
2024/02/21 10:56:40;;;;;;;7.60;4.57;;;11.20;99.90;;;;;;5038249;28;20430;-22
2024/02/21 10:59:07;;;;;;;5.50;3.80;;;11.20;99.90;;;;;;5028247;28;21109;-24
2024/02/21 11:01:37;;;;;;;7.17;4.23;;;11.20;99.90;;;;;;5022070;28;20467;-24
2024/02/21 11:04:05;;;;;;;7.37;4.33;;;11.20;99.90;;;;;;5003002;28;20466;-21
2024/02/21 11:06:33;;;;;;;7.73;5.00;;;11.30;99.90;;;;;;5036641;28;21262;-23
2024/02/21 11:09:10;;;;;;;7.50;4.20;;;11.20;99.90;;;;;;5019248;28;20445;-25
2024/02/21 11:11:43;;;;;;;5.50;3.93;;;11.30;99.90;;;;;;5004147;28;20435;-23
2024/02/21 11:14:19;;;;;;;7.53;3.70;;;11.30;99.90;;;;;;5005532;28;20512;-24
2024/02/21 11:16:46;;;;;;;7.07;4.30;;;11.30;99.90;;;;;;5019047;28;20430;-23
2024/02/21 11:19:24;;;;;;;7.10;3.80;;;11.30;99.90;;;;;;5022063;28;20580;-25
2024/02/21 11:21:51;;;;;;;5.20;3.50;;;11.30;99.90;;;;;;5042514;28;20457;-23
2024/02/21 11:24:31;;;;;;;7.33;3.93;;;11.30;99.90;;;;;;5020825;28;20439;-25
2024/02/21 11:27:20;;;;;;;5.33;4.37;;;11.30;99.90;;;;;;5037569;28;20426;-24
2024/02/21 11:29:57;;;;;;;4.20;3.60;;;11.30;99.90;;;;;;5032954;28;20473;-24
2024/02/21 11:32:27;;;;;;;5.83;4.20;;;11.40;99.90;;;;;;5026489;28;20415;-24
2024/02/21 11:35:04;;;;;;;6.53;4.27;;;11.30;99.90;;;;;;5037653;28;20450;-25
2024/02/21 11:37:36;;;;;;;4.27;3.87;;;11.30;99.90;;;;;;4996069;28;21080;-24
2024/02/21 11:40:03;;;;;;;5.33;4.20;;;11.30;99.90;;;;;;5037140;28;20459;-24
2024/02/21 11:42:32;;;;;;;5.70;3.57;;;11.30;99.90;;;;;;5027286;28;20438;-25
2024/02/21 11:45:00;;;;;;;10.37;3.87;;;11.30;99.90;;;;;;5032184;28;20446;-25
2024/02/21 11:47:28;;;;;;;6.63;4.30;;;11.30;99.90;;;;;;5009307;28;20517;-24
2024/02/21 11:49:59;;;;;;;8.73;4.17;;;11.40;99.90;;;;;;5010645;28;21761;-24
2024/02/21 11:52:27;;;;;;;4.57;4.17;;;11.40;99.90;;;;;;5040821;28;21238;-24
2024/02/21 11:54:55;;;;;;;6.50;3.77;;;11.40;99.90;;;;;;5022000;28;20517;-24
2024/02/21 11:57:26;;;;;;;6.83;4.30;;;11.40;99.90;;;;;;5024761;28;20449;-25
2024/02/21 11:59:54;;;;;;;8.30;3.67;;;11.40;99.90;;;;;;5040408;28;20754;-24
2024/02/21 12:02:21;;;;;;;6.40;4.03;;;11.40;99.90;;;;;;5024861;28;20450;-26
2024/02/21 12:04:49;;;;;;;6.87;4.20;;;11.40;99.90;;;;;;5040421;28;20454;-24
2024/02/21 12:07:15;;;;;;;5.60;3.90;;;11.50;99.90;;;;;;5022925;28;21419;-24
2024/02/21 12:09:46;;;;;;;8.43;4.20;;;11.50;99.90;;;;;;5023814;28;20526;-24
2024/02/21 12:12:12;;;;;;;5.53;4.10;;;11.50;99.90;;;;;;5018687;28;20434;-25
2024/02/21 12:14:38;;;;;;;6.50;4.47;;;11.40;99.90;;;;;;5039958;28;20534;-25
2024/02/21 12:17:07;;;;;;;6.83;4.27;;;11.40;99.90;;;;;;5022169;28;20533;-24
2024/02/21 12:19:36;;;;;;;11.00;4.77;;;11.50;99.90;;;;;;5022350;28;20462;-23
2024/02/21 12:22:05;;;;;;;5.97;3.63;;;11.50;99.90;;;;;;5040463;28;20431;-24
2024/02/21 12:24:31;;;;;;;8.60;4.10;;;11.50;99.90;;;;;;5040885;28;20465;-25
2024/02/21 12:27:03;;;;;;;6.63;4.80;;;11.50;99.90;;;;;;5022283;28;20829;-25
2024/02/21 12:29:32;;;;;;;6.27;3.83;;;11.50;99.90;;;;;;5041466;28;20450;-25
2024/02/21 12:32:00;;;;;;;5.87;4.17;;;11.50;99.90;;;;;;5022875;28;20427;-23
2024/02/21 12:34:27;;;;;;;7.77;4.13;;;11.60;99.90;;;;;;5022543;28;20430;-24
2024/02/21 12:36:53;;;;;;;13.33;4.27;;;11.60;99.90;;;;;;5022286;28;21205;-24
2024/02/21 12:39:19;;;;;;;5.30;4.07;;;11.60;99.90;;;;;;5039898;28;20463;-26
2024/02/21 12:41:45;;;;;;;6.20;4.40;;;11.60;99.90;;;;;;5021406;28;20415;-24
2024/02/21 12:44:18;;;;;;;12.27;4.73;;;11.60;99.90;;;;;;5006111;28;20446;-25
2024/02/21 12:46:53;;;;;;;10.40;4.70;;;11.60;99.90;;;;;;5046184;28;20858;-25
2024/02/21 12:49:19;;;;;;;5.67;3.70;;;11.60;99.90;;;;;;5040430;28;20479;-23